createdAt,value
2017-05-21T00:00:08.149Z,10.25
2017-05-21T00:00:49.141Z,10.26
2017-05-21T00:01:29.610Z,10.25
2017-05-21T00:02:10.082Z,10.25
2017-05-21T00:02:50.571Z,10.23
2017-05-21T00:03:31.740Z,10.27
2017-05-21T00:04:12.218Z,10.32
2017-05-21T00:04:52.737Z,10.33
2017-05-21T00:05:33.182Z,10.36
2017-05-21T00:06:13.687Z,10.41
2017-05-21T00:06:54.165Z,10.48
2017-05-21T00:07:34.636Z,10.51
2017-05-21T00:08:15.111Z,10.52
2017-05-21T00:08:55.615Z,10.59
2017-05-21T00:09:36.102Z,10.56
2017-05-21T00:10:16.588Z,10.51
2017-05-21T00:10:57.059Z,10.63
2017-05-21T00:11:37.572Z,10.56
2017-05-21T00:12:18.053Z,10.59
2017-05-21T00:12:58.575Z,10.59
2017-05-21T00:13:39.032Z,10.45
2017-05-21T00:14:19.511Z,10.41
2017-05-21T00:15:00.005Z,10.4
2017-05-21T00:15:40.462Z,10.33
2017-05-21T00:16:20.964Z,10.26
2017-05-21T00:17:01.445Z,10.32
2017-05-21T00:17:41.942Z,10.36
2017-05-21T00:18:22.422Z,10.32
2017-05-21T00:19:02.920Z,10.34
2017-05-21T00:19:43.417Z,10.41
2017-05-21T00:20:23.898Z,10.38
2017-05-21T00:21:04.918Z,10.34
2017-05-21T00:21:45.411Z,10.34
2017-05-21T00:22:25.901Z,10.34
2017-05-21T00:23:06.390Z,10.25
2017-05-21T00:23:46.873Z,10.3
2017-05-21T00:24:27.351Z,10.29
2017-05-21T00:25:07.885Z,10.23
2017-05-21T00:25:48.367Z,10.2
2017-05-21T00:26:28.880Z,10.2
2017-05-21T00:27:10.042Z,9.99
2017-05-21T00:27:50.516Z,10.02
2017-05-21T00:28:30.980Z,9.94
2017-05-21T00:29:11.449Z,9.76
2017-05-21T00:29:51.936Z,9.81
2017-05-21T00:30:32.412Z,9.78
2017-05-21T00:31:13.816Z,9.72
2017-05-21T00:31:54.280Z,9.75
2017-05-21T00:33:46.798Z,9.9
2017-05-21T00:34:27.263Z,9.94
2017-05-21T00:35:08.493Z,9.87
2017-05-21T00:35:48.986Z,9.9
2017-05-21T00:37:41.597Z,10.01
2017-05-21T00:38:21.971Z,9.9
2017-05-21T00:39:04.012Z,9.91
2017-05-21T00:39:44.987Z,9.75
2017-05-21T00:41:37.572Z,9.91
2017-05-21T00:42:17.972Z,10.01
2017-05-21T00:42:58.474Z,9.93
2017-05-21T00:43:38.985Z,10.04
2017-05-21T00:44:19.473Z,9.91
2017-05-21T00:44:59.934Z,9.91
2017-05-21T00:45:40.430Z,9.93
2017-05-21T00:46:21.498Z,9.96
2017-05-21T00:47:01.956Z,10.07
2017-05-21T00:47:42.440Z,10.07
2017-05-21T00:48:22.896Z,10.02
2017-05-21T00:49:03.353Z,9.94
2017-05-21T00:49:44.703Z,9.93
2017-05-21T00:50:25.139Z,9.83
2017-05-21T00:52:17.822Z,9.76
2017-05-21T00:52:58.135Z,9.75
2017-05-21T00:53:38.602Z,9.71
2017-05-21T00:54:19.036Z,9.72
2017-05-21T00:54:59.484Z,9.74
2017-05-21T00:55:39.920Z,9.71
2017-05-21T00:57:32.618Z,9.68
2017-05-21T00:58:12.926Z,9.71
2017-05-21T00:58:53.367Z,9.69
2017-05-21T00:59:33.835Z,9.72
2017-05-21T01:00:14.267Z,9.71
2017-05-21T01:02:11.931Z,9.84
2017-05-21T01:02:53.296Z,9.71
2017-05-21T01:03:33.775Z,9.65
2017-05-21T01:04:14.266Z,9.61
2017-05-21T01:04:54.762Z,9.56
2017-05-21T01:05:35.275Z,9.39
2017-05-21T01:06:16.728Z,9.33
2017-05-21T01:06:57.189Z,9.38
2017-05-21T01:07:37.649Z,9.38
2017-05-21T01:08:19.088Z,9.38
2017-05-21T01:08:59.593Z,9.42
2017-05-21T01:09:40.071Z,9.42
2017-05-21T01:10:20.550Z,9.5
2017-05-21T01:11:01.044Z,9.4
2017-05-21T01:11:41.522Z,9.43
2017-05-21T01:13:40.479Z,9.42
2017-05-21T01:14:20.933Z,9.32
2017-05-21T01:15:01.425Z,9.35
2017-05-21T01:15:41.893Z,9.35
2017-05-21T01:16:23.090Z,9.35
2017-05-21T01:17:03.530Z,9.18
2017-05-21T01:17:44.018Z,9.15
2017-05-21T01:18:24.486Z,9.23
2017-05-21T01:19:04.986Z,9.18
2017-05-21T01:19:45.460Z,9.21
2017-05-21T01:20:25.950Z,9.36
2017-05-21T01:21:06.433Z,9.31
2017-05-21T01:21:46.869Z,9.33
2017-05-21T01:22:27.327Z,9.29
2017-05-21T01:23:07.785Z,9.28
2017-05-21T01:24:55.279Z,9.15
2017-05-21T01:25:35.732Z,9.08
2017-05-21T01:26:16.179Z,8.96
2017-05-21T01:28:08.733Z,9.01
2017-05-21T01:28:50.193Z,8.98
2017-05-21T01:29:30.661Z,8.94
2017-05-21T01:30:11.161Z,8.87
2017-05-21T01:30:51.637Z,8.77
2017-05-21T01:31:32.140Z,8.92
2017-05-21T01:32:12.609Z,8.89
2017-05-21T01:32:53.131Z,8.89
2017-05-21T01:33:33.589Z,8.95
2017-05-21T01:34:15.595Z,8.96
2017-05-21T01:34:56.086Z,8.91
2017-05-21T01:35:36.515Z,8.87
2017-05-21T01:37:49.233Z,8.91
2017-05-21T01:38:29.712Z,8.94
2017-05-21T01:39:10.182Z,8.89
2017-05-21T01:39:50.679Z,8.94
2017-05-21T01:40:31.158Z,8.91
2017-05-21T01:41:11.662Z,8.91
2017-05-21T01:41:52.145Z,8.98
2017-05-21T01:42:32.614Z,9.01
2017-05-21T01:43:13.072Z,9.01
2017-05-21T01:43:53.510Z,8.94
2017-05-21T01:44:33.967Z,9.02
2017-05-21T01:46:31.637Z,9.01
2017-05-21T01:47:12.057Z,9.04
2017-05-21T01:47:52.525Z,9.08
2017-05-21T01:48:33.016Z,8.98
2017-05-21T01:49:13.505Z,9.04
2017-05-21T01:49:53.969Z,9.01
2017-05-21T01:50:34.468Z,8.94
2017-05-21T01:51:14.949Z,8.99
2017-05-21T01:51:55.433Z,9.08
2017-05-21T01:52:35.905Z,9.05
2017-05-21T01:53:16.351Z,9.04
2017-05-21T01:53:56.830Z,9.05
2017-05-21T01:54:37.327Z,9.13
2017-05-21T01:55:17.839Z,9.11
2017-05-21T01:55:58.320Z,9.11
2017-05-21T01:57:50.934Z,8.94
2017-05-21T01:58:31.400Z,8.98
2017-05-21T01:59:11.807Z,8.89
2017-05-21T01:59:52.322Z,8.92
2017-05-21T02:00:32.811Z,8.73
2017-05-21T02:01:13.265Z,8.77
2017-05-21T02:01:53.756Z,8.74
2017-05-21T02:02:34.198Z,8.86
2017-05-21T02:03:14.694Z,8.77
2017-05-21T02:03:55.127Z,8.79
2017-05-21T02:04:35.570Z,8.76
2017-05-21T02:05:16.029Z,8.8
2017-05-21T02:05:56.470Z,8.8
2017-05-21T02:06:36.906Z,8.79
2017-05-21T02:08:14.245Z,8.76
2017-05-21T02:08:54.724Z,8.83
2017-05-21T02:09:35.211Z,8.77
2017-05-21T02:10:15.682Z,8.79
2017-05-21T02:10:56.162Z,8.77
2017-05-21T02:11:36.641Z,8.77
2017-05-21T02:12:17.121Z,8.8
2017-05-21T02:12:58.302Z,8.8
2017-05-21T02:13:38.789Z,8.76
2017-05-21T02:14:19.272Z,8.79
2017-05-21T02:14:59.784Z,8.79
2017-05-21T02:15:41.219Z,8.79
2017-05-21T02:16:21.695Z,8.77
2017-05-21T02:17:02.187Z,8.79
2017-05-21T02:17:42.660Z,8.8
2017-05-21T02:18:23.148Z,8.73
2017-05-21T02:19:03.610Z,8.8
2017-05-21T02:19:44.638Z,8.74
2017-05-21T02:20:25.123Z,8.8
2017-05-21T02:21:05.616Z,8.84
2017-05-21T02:21:46.810Z,8.79
2017-05-21T02:22:28.225Z,8.81
2017-05-21T02:23:08.740Z,8.74
2017-05-21T02:23:49.224Z,8.76
2017-05-21T02:24:29.702Z,8.73
2017-05-21T02:25:10.169Z,8.58
2017-05-21T02:25:50.666Z,8.62
2017-05-21T02:26:31.151Z,8.68
2017-05-21T02:27:11.629Z,8.7
2017-05-21T02:27:52.110Z,8.8
2017-05-21T02:28:32.602Z,8.77
2017-05-21T02:29:13.080Z,8.74
2017-05-21T02:29:53.579Z,8.86
2017-05-21T02:30:34.639Z,8.71
2017-05-21T02:31:15.132Z,8.61
2017-05-21T02:33:12.825Z,8.71
2017-05-21T02:33:53.226Z,8.71
2017-05-21T02:34:33.702Z,8.79
2017-05-21T02:35:14.200Z,8.8
2017-05-21T02:35:55.290Z,8.81
2017-05-21T02:36:35.796Z,8.7
2017-05-21T02:37:17.141Z,8.74
2017-05-21T02:37:57.633Z,8.63
2017-05-21T02:38:38.126Z,8.8
2017-05-21T02:39:19.540Z,8.76
2017-05-21T02:40:00.026Z,8.79
2017-05-21T02:40:40.478Z,8.73
2017-05-21T02:41:20.915Z,8.77
2017-05-21T02:42:01.393Z,8.91
2017-05-21T02:42:41.868Z,8.94
2017-05-21T02:43:22.372Z,8.94
2017-05-21T02:44:02.885Z,8.83
2017-05-21T02:44:43.372Z,8.77
2017-05-21T02:45:23.847Z,8.91
2017-05-21T02:46:04.335Z,8.94
2017-05-21T02:46:44.812Z,8.8
2017-05-21T02:47:25.281Z,8.76
2017-05-21T02:49:02.665Z,8.79
2017-05-21T02:49:43.082Z,8.86
2017-05-21T02:50:23.564Z,8.83
2017-05-21T02:51:04.049Z,8.84
2017-05-21T02:51:44.529Z,8.8
2017-05-21T02:52:25.021Z,8.76
2017-05-21T02:53:05.518Z,8.73
2017-05-21T02:53:46.001Z,8.71
2017-05-21T02:54:26.487Z,8.59
2017-05-21T02:55:07.007Z,8.65
2017-05-21T02:55:47.477Z,8.56
2017-05-21T02:56:27.963Z,8.48
2017-05-21T02:57:08.491Z,8.62
2017-05-21T02:57:48.925Z,8.56
2017-05-21T02:58:29.452Z,8.58
2017-05-21T02:59:09.925Z,8.44
2017-05-21T02:59:51.414Z,8.44
2017-05-21T03:00:31.921Z,8.29
2017-05-21T03:01:12.408Z,8.26
2017-05-21T03:01:52.874Z,8.33
2017-05-21T03:02:33.341Z,8.38
2017-05-21T03:03:13.842Z,8.37
2017-05-21T03:03:54.320Z,8.3
2017-05-21T03:04:34.798Z,8.3
2017-05-21T03:05:15.280Z,8.28
2017-05-21T03:05:55.767Z,8.25
2017-05-21T03:06:36.231Z,8.16
2017-05-21T03:07:16.725Z,8.2
2017-05-21T03:07:57.242Z,8.22
2017-05-21T03:08:37.691Z,8.23
2017-05-21T03:09:18.193Z,8.25
2017-05-21T03:09:59.155Z,8.16
2017-05-21T03:10:39.621Z,8.22
2017-05-21T03:11:20.907Z,8.23
2017-05-21T03:12:01.373Z,8.19
2017-05-21T03:12:41.845Z,8.25
2017-05-21T03:13:22.337Z,8.26
2017-05-21T03:14:03.612Z,8.19
2017-05-21T03:14:44.095Z,8.19
2017-05-21T03:15:24.576Z,8.19
2017-05-21T03:16:05.056Z,8.18
2017-05-21T03:16:45.541Z,8.23
2017-05-21T03:17:26.022Z,8.18
2017-05-21T03:18:06.502Z,8.19
2017-05-21T03:18:46.983Z,8.18
2017-05-21T03:19:27.451Z,8.19
2017-05-21T03:20:08.684Z,8.23
2017-05-21T03:20:49.115Z,8.23
2017-05-21T03:21:29.585Z,8.04
2017-05-21T03:22:10.004Z,8.15
2017-05-21T03:24:07.858Z,8.25
2017-05-21T03:24:48.141Z,8.18
2017-05-21T03:25:28.589Z,8.23
2017-05-21T03:26:09.017Z,8.18
2017-05-21T03:26:49.480Z,8.15
2017-05-21T03:28:47.318Z,8.07
2017-05-21T03:29:28.580Z,8.1
2017-05-21T03:30:09.033Z,8.08
2017-05-21T03:30:49.488Z,8.08
2017-05-21T03:31:29.930Z,8.1
2017-05-21T03:32:10.368Z,8.12
2017-05-21T03:32:50.815Z,8.1
2017-05-21T03:34:43.379Z,8.1
2017-05-21T03:35:23.829Z,8.16
2017-05-21T03:36:04.310Z,8.1
2017-05-21T03:36:44.800Z,8.11
2017-05-21T03:37:25.270Z,8.08
2017-05-21T03:38:05.750Z,8.08
2017-05-21T03:38:46.245Z,8.08
2017-05-21T03:39:26.745Z,8.15
2017-05-21T03:40:07.226Z,8.07
2017-05-21T03:40:47.692Z,8.08
2017-05-21T03:41:28.141Z,8.1
2017-05-21T03:42:08.627Z,8.11
2017-05-21T03:42:49.067Z,8.16
2017-05-21T03:43:29.483Z,8.2
2017-05-21T03:44:09.974Z,8.18
2017-05-21T03:44:50.366Z,8.08
2017-05-21T03:45:30.823Z,8.1
2017-05-21T03:46:11.238Z,8.08
2017-05-21T03:46:51.695Z,8.07
2017-05-21T03:47:32.140Z,8.01
2017-05-21T03:48:12.589Z,7.98
2017-05-21T03:48:53.031Z,8.05
2017-05-21T03:51:06.637Z,8.04
2017-05-21T03:51:47.116Z,8.1
2017-05-21T03:52:27.591Z,8.05
2017-05-21T03:53:08.097Z,8.07
2017-05-21T03:53:48.615Z,8
2017-05-21T03:54:29.061Z,7.97
2017-05-21T03:55:09.626Z,8.1
2017-05-21T03:55:50.933Z,8
2017-05-21T03:56:31.416Z,7.97
2017-05-21T03:57:11.918Z,8.01
2017-05-21T03:57:52.403Z,8.05
2017-05-21T03:58:32.898Z,7.97
2017-05-21T03:59:13.477Z,8.02
2017-05-21T03:59:53.843Z,7.97
2017-05-21T04:00:34.322Z,8.01
2017-05-21T04:01:14.809Z,8.01
2017-05-21T04:01:55.276Z,7.98
2017-05-21T04:02:35.765Z,7.95
2017-05-21T04:03:16.220Z,8.01
2017-05-21T04:03:56.694Z,7.97
2017-05-21T04:04:37.190Z,7.95
2017-05-21T04:05:17.660Z,8
2017-05-21T04:05:58.153Z,7.97
2017-05-21T04:06:38.630Z,7.9
2017-05-21T04:07:19.084Z,8.08
2017-05-21T04:07:59.568Z,8.05
2017-05-21T04:08:40.041Z,8.08
2017-05-21T04:09:20.534Z,8.05
2017-05-21T04:10:01.016Z,8.1
2017-05-21T04:10:41.503Z,8.1
2017-05-21T04:11:21.972Z,8.16
2017-05-21T04:12:02.465Z,8.07
2017-05-21T04:12:42.972Z,8.23
2017-05-21T04:14:55.672Z,8.2
2017-05-21T04:15:36.962Z,8.19
2017-05-21T04:16:17.465Z,8.22
2017-05-21T04:16:57.929Z,8.16
2017-05-21T04:17:38.422Z,8.28
2017-05-21T04:18:18.911Z,8.22
2017-05-21T04:18:59.394Z,8.29
2017-05-21T04:19:40.644Z,8.25
2017-05-21T04:20:21.227Z,8.33
2017-05-21T04:21:01.671Z,8.38
2017-05-21T04:21:42.175Z,8.37
2017-05-21T04:22:22.638Z,8.33
2017-05-21T04:23:03.113Z,8.36
2017-05-21T04:23:43.613Z,8.37
2017-05-21T04:24:24.089Z,8.36
2017-05-21T04:25:04.561Z,8.33
2017-05-21T04:27:02.222Z,8.41
2017-05-21T04:27:43.357Z,8.45
2017-05-21T04:28:23.811Z,8.56
2017-05-21T04:29:04.368Z,8.58
2017-05-21T04:29:45.555Z,8.48
2017-05-21T04:30:26.070Z,8.65
2017-05-21T04:31:06.529Z,8.66
2017-05-21T04:31:46.988Z,8.79
2017-05-21T04:32:27.494Z,8.73
2017-05-21T04:33:07.967Z,8.77
2017-05-21T04:35:20.714Z,8.77
2017-05-21T04:36:01.147Z,8.8
2017-05-21T04:36:41.646Z,8.76
2017-05-21T04:37:22.125Z,8.79
2017-05-21T04:38:02.587Z,8.77
2017-05-21T04:38:44.002Z,8.86
2017-05-21T04:39:25.377Z,8.92
2017-05-21T04:40:05.867Z,9.1
2017-05-21T04:40:46.330Z,9.1
2017-05-21T04:41:26.820Z,9.18
2017-05-21T04:42:07.302Z,9.29
2017-05-21T04:42:47.777Z,9.39
2017-05-21T04:43:28.204Z,9.5
2017-05-21T04:44:08.673Z,9.58
2017-05-21T04:44:49.105Z,9.81
2017-05-21T04:45:29.550Z,9.99
2017-05-21T04:47:07.005Z,10.15
2017-05-21T04:47:47.328Z,10.18
2017-05-21T04:48:27.740Z,10.3
2017-05-21T04:49:08.204Z,10.36
2017-05-21T04:49:48.668Z,10.45
2017-05-21T04:50:29.121Z,10.61
2017-05-21T04:51:09.585Z,10.7
2017-05-21T04:51:50.079Z,10.76
2017-05-21T04:52:30.543Z,10.84
2017-05-21T04:54:23.059Z,11.11
2017-05-21T04:55:03.553Z,11.33
2017-05-21T04:55:44.024Z,11.42
2017-05-21T04:56:24.474Z,11.28
2017-05-21T04:57:05.755Z,11.15
2017-05-21T04:57:46.217Z,11.4
2017-05-21T04:58:26.676Z,11.46
2017-05-21T04:59:07.126Z,11.47
2017-05-21T04:59:47.581Z,11.58
2017-05-21T05:01:40.141Z,12.01
2017-05-21T05:02:21.570Z,11.88
2017-05-21T05:03:02.061Z,12.04
2017-05-21T05:03:42.552Z,12.13
2017-05-21T05:04:23.056Z,12.05
2017-05-21T05:05:03.550Z,12.16
2017-05-21T05:05:44.036Z,12.41
2017-05-21T05:06:24.531Z,12.23
2017-05-21T05:07:05.034Z,12.21
2017-05-21T05:07:45.513Z,12.42
2017-05-21T05:08:26.007Z,12.32
2017-05-21T05:09:06.475Z,12.52
2017-05-21T05:09:46.949Z,12.46
2017-05-21T05:10:27.390Z,12.31
2017-05-21T05:11:08.663Z,12.5
2017-05-21T05:11:49.090Z,12.6
2017-05-21T05:12:30.172Z,12.27
2017-05-21T05:13:10.635Z,12.42
2017-05-21T05:14:47.975Z,12.29
2017-05-21T05:15:28.436Z,12.47
2017-05-21T05:16:08.940Z,12.5
2017-05-21T05:16:49.413Z,12.53
2017-05-21T05:17:30.655Z,12.6
2017-05-21T05:18:11.153Z,12.85
2017-05-21T05:18:51.634Z,13.08
2017-05-21T05:19:32.131Z,13.22
2017-05-21T05:20:12.601Z,13.38
2017-05-21T05:20:53.099Z,13.45
2017-05-21T05:21:33.618Z,13.36
2017-05-21T05:22:14.085Z,13.15
2017-05-21T05:22:54.582Z,12.9
2017-05-21T05:23:35.074Z,13.04
2017-05-21T05:24:15.553Z,13.05
2017-05-21T05:24:56.046Z,13.15
2017-05-21T05:25:36.499Z,13.08
2017-05-21T05:27:34.143Z,13.44
2017-05-21T05:28:14.592Z,13.52
2017-05-21T05:28:55.071Z,13.62
2017-05-21T05:29:35.548Z,13.82
2017-05-21T05:30:16.031Z,13.82
2017-05-21T05:30:56.488Z,13.73
2017-05-21T05:31:36.924Z,13.78
2017-05-21T05:32:17.416Z,13.75
2017-05-21T05:32:57.852Z,13.67
2017-05-21T05:33:38.387Z,13.73
2017-05-21T05:34:18.847Z,14
2017-05-21T05:34:59.289Z,14.09
2017-05-21T05:36:51.937Z,14.18
2017-05-21T05:37:32.350Z,14.32
2017-05-21T05:38:12.798Z,14.17
2017-05-21T05:38:53.279Z,14.09
2017-05-21T05:39:33.749Z,13.99
2017-05-21T05:40:14.239Z,14.18
2017-05-21T05:40:54.734Z,14.25
2017-05-21T05:41:35.205Z,14.51
2017-05-21T05:42:15.692Z,14.62
2017-05-21T05:42:56.180Z,14.7
2017-05-21T05:43:36.637Z,14.94
2017-05-21T05:45:14.335Z,15.16
2017-05-21T05:45:54.780Z,15.27
2017-05-21T05:46:35.267Z,14.98
2017-05-21T05:47:15.720Z,14.96
2017-05-21T05:47:56.215Z,14.91
2017-05-21T05:48:36.714Z,15.02
2017-05-21T05:49:17.189Z,15.16
2017-05-21T05:49:57.681Z,15.56
2017-05-21T05:50:38.155Z,15.8
2017-05-21T05:51:18.590Z,15.78
2017-05-21T05:51:59.041Z,15.82
2017-05-21T05:52:39.457Z,15.78
2017-05-21T05:53:19.942Z,15.49
2017-05-21T05:54:00.403Z,15.57
2017-05-21T05:54:40.889Z,15.72
2017-05-21T05:55:21.353Z,15.59
2017-05-21T05:56:01.806Z,15.71
2017-05-21T05:56:42.247Z,15.86
2017-05-21T05:58:19.701Z,16.23
2017-05-21T05:59:00.061Z,16.45
2017-05-21T05:59:40.549Z,16.41
2017-05-21T06:00:21.026Z,16.35
2017-05-21T06:01:01.505Z,16.6
2017-05-21T06:01:42.007Z,16.75
2017-05-21T06:02:22.484Z,17.01
2017-05-21T06:03:02.983Z,17.06
2017-05-21T06:03:43.483Z,17.19
2017-05-21T06:04:23.982Z,17.52
2017-05-21T06:05:04.457Z,17.28
2017-05-21T06:05:44.914Z,17.38
2017-05-21T06:06:25.414Z,17.51
2017-05-21T06:07:05.905Z,17.21
2017-05-21T06:07:46.354Z,17.36
2017-05-21T06:08:26.850Z,16.91
2017-05-21T06:09:07.338Z,17.55
2017-05-21T06:09:47.825Z,17.77
2017-05-21T06:10:28.287Z,17.72
2017-05-21T06:12:15.857Z,17.77
2017-05-21T06:12:56.168Z,17.21
2017-05-21T06:13:36.637Z,17.44
2017-05-21T06:14:17.054Z,17.12
2017-05-21T06:14:57.483Z,17.48
2017-05-21T06:15:37.918Z,17.22
2017-05-21T06:16:18.381Z,17.36
2017-05-21T06:16:58.818Z,17.49
2017-05-21T06:17:39.281Z,17.36
2017-05-21T06:18:19.760Z,17.16
2017-05-21T06:19:00.196Z,17.22
2017-05-21T06:19:40.662Z,17.52
2017-05-21T06:20:21.077Z,17.79
2017-05-21T06:21:01.532Z,17.64
2017-05-21T06:21:42.059Z,17.86
2017-05-21T06:22:22.495Z,18.05
2017-05-21T06:23:02.956Z,18.15
2017-05-21T06:23:43.421Z,18.21
2017-05-21T06:24:23.867Z,18.41
2017-05-21T06:25:04.305Z,18.7
2017-05-21T06:25:44.776Z,19.02
2017-05-21T06:26:25.241Z,18.82
2017-05-21T06:27:05.718Z,18.82
2017-05-21T06:27:46.174Z,18.95
2017-05-21T06:29:33.709Z,19.33
2017-05-21T06:30:14.121Z,19.32
2017-05-21T06:30:54.573Z,19.65
2017-05-21T06:31:35.084Z,19.31
2017-05-21T06:32:15.575Z,19.25
2017-05-21T06:32:56.057Z,19.5
2017-05-21T06:33:36.567Z,19.5
2017-05-21T06:34:17.053Z,19.44
2017-05-21T06:34:57.513Z,19.32
2017-05-21T06:35:37.981Z,19.61
2017-05-21T06:37:50.762Z,19.65
2017-05-21T06:38:31.174Z,19.88
2017-05-21T06:39:11.631Z,20.16
2017-05-21T06:41:04.263Z,20.91
2017-05-21T06:41:44.667Z,21.27
2017-05-21T06:42:25.175Z,21.16
2017-05-21T06:44:37.969Z,21.69
2017-05-21T06:45:18.359Z,21.14
2017-05-21T06:45:58.867Z,20.87
2017-05-21T06:46:39.337Z,20.85
2017-05-21T06:47:19.769Z,20.54
2017-05-21T06:48:00.215Z,20.51
2017-05-21T06:48:40.710Z,20.89
2017-05-21T06:49:21.149Z,21.01
2017-05-21T06:50:01.614Z,21.01
2017-05-21T06:50:42.067Z,20.7
2017-05-21T06:51:22.532Z,20.58
2017-05-21T06:52:02.986Z,20.21
2017-05-21T06:53:40.454Z,19.96
2017-05-21T06:54:20.785Z,19.88
2017-05-21T06:55:01.266Z,20.21
2017-05-21T06:55:41.729Z,20.62
2017-05-21T06:56:22.227Z,20.66
2017-05-21T06:57:02.747Z,20.94
2017-05-21T06:57:43.219Z,21.13
2017-05-21T06:58:23.676Z,21.31
2017-05-21T06:59:04.117Z,21.65
2017-05-21T06:59:44.570Z,22.1
2017-05-21T07:01:37.136Z,22.1
2017-05-21T07:02:17.605Z,22.33
2017-05-21T07:02:58.085Z,21.98
2017-05-21T07:03:38.571Z,21.94
2017-05-21T07:05:26.116Z,21.1
2017-05-21T07:06:06.495Z,20.66
2017-05-21T07:06:47.009Z,21.17
2017-05-21T07:07:27.506Z,21.49
2017-05-21T07:08:08.011Z,21.22
2017-05-21T07:10:20.883Z,20.66
2017-05-21T07:11:01.198Z,20.77
2017-05-21T07:11:41.665Z,21.12
2017-05-21T07:12:22.133Z,21.44
2017-05-21T07:13:02.601Z,21.29
2017-05-21T07:13:43.042Z,20.74
2017-05-21T07:14:23.510Z,20.59
2017-05-21T07:15:03.987Z,20.03
2017-05-21T07:15:44.451Z,20.8
2017-05-21T07:16:24.926Z,20.89
2017-05-21T07:18:22.674Z,21.49
2017-05-21T07:19:03.049Z,21.65
2017-05-21T07:19:43.495Z,21.74
2017-05-21T07:20:23.946Z,22.25
2017-05-21T07:22:01.729Z,22.65
2017-05-21T07:22:42.097Z,22.49
2017-05-21T07:23:22.568Z,22.8
2017-05-21T07:24:03.021Z,22.9
2017-05-21T07:24:43.466Z,21.83
2017-05-21T07:25:23.889Z,22.14
2017-05-21T07:27:16.608Z,22.07
2017-05-21T07:27:56.910Z,22.14
2017-05-21T07:28:37.360Z,22.17
2017-05-21T07:30:50.094Z,22.88
2017-05-21T07:31:30.521Z,22.65
2017-05-21T07:32:11.004Z,22.57
2017-05-21T07:32:51.478Z,22.31
2017-05-21T07:33:31.927Z,22.47
2017-05-21T07:34:12.423Z,22.52
2017-05-21T07:34:52.888Z,21.69
2017-05-21T07:35:33.360Z,22.03
2017-05-21T07:36:13.817Z,22.49
2017-05-21T07:36:54.301Z,22.9
2017-05-21T07:37:34.769Z,23.48
2017-05-21T07:38:15.215Z,23.76
2017-05-21T07:39:52.587Z,24.16
2017-05-21T07:40:33.041Z,23.69
2017-05-21T07:41:13.522Z,23.98
2017-05-21T07:41:54.015Z,23.87
2017-05-21T07:42:34.511Z,24.39
2017-05-21T07:43:14.985Z,23.66
2017-05-21T07:43:55.552Z,23.35
2017-05-21T07:44:35.952Z,22.68
2017-05-21T07:45:16.400Z,22.62
2017-05-21T07:45:56.871Z,22.15
2017-05-21T07:47:44.420Z,23.47
2017-05-21T07:48:24.826Z,23.6
2017-05-21T07:49:05.312Z,23.78
2017-05-21T07:49:45.791Z,23.38
2017-05-21T07:50:26.259Z,22.72
2017-05-21T07:51:06.712Z,22.37
2017-05-21T07:51:47.144Z,22.43
2017-05-21T07:52:27.618Z,22.46
2017-05-21T07:53:08.916Z,23.36
2017-05-21T07:53:49.332Z,24.06
2017-05-21T07:54:29.850Z,24.25
2017-05-21T07:56:42.656Z,25.92
2017-05-21T07:57:23.025Z,26.23
2017-05-21T07:58:03.535Z,25.82
2017-05-21T07:58:44.010Z,25.98
2017-05-21T07:59:24.461Z,25.61
2017-05-21T08:01:01.857Z,25.88
2017-05-21T08:01:42.332Z,24.84
2017-05-21T08:02:22.801Z,24.91
2017-05-21T08:03:03.292Z,25.61
2017-05-21T08:03:43.737Z,25.62
2017-05-21T08:04:25.599Z,25.88
2017-05-21T08:06:38.410Z,25.51
2017-05-21T08:07:18.816Z,25.64
2017-05-21T08:07:59.270Z,25.83
2017-05-21T08:08:39.735Z,25.7
2017-05-21T08:09:20.231Z,26.35
2017-05-21T08:10:00.729Z,26.75
2017-05-21T08:10:41.154Z,25.9
2017-05-21T08:11:22.117Z,23.83
2017-05-21T08:12:02.582Z,24.21
2017-05-21T08:12:43.051Z,24.98
2017-05-21T08:13:23.506Z,25.77
2017-05-21T08:14:03.958Z,25.02
2017-05-21T08:14:44.428Z,25.39
2017-05-21T08:15:24.923Z,25.97
2017-05-21T08:16:05.383Z,26.18
2017-05-21T08:16:45.853Z,26.12
2017-05-21T08:17:26.328Z,26.57
2017-05-21T08:19:39.065Z,26.37
2017-05-21T08:20:19.544Z,25.9
2017-05-21T08:21:00.029Z,25.67
2017-05-21T08:21:40.499Z,25.62
2017-05-21T08:22:20.973Z,25.3
2017-05-21T08:23:01.417Z,24.4
2017-05-21T08:24:39.170Z,24.22
2017-05-21T08:25:19.540Z,23.17
2017-05-21T08:26:00.024Z,23.95
2017-05-21T08:26:40.494Z,24.03
2017-05-21T08:27:20.943Z,24.39
2017-05-21T08:29:08.550Z,24.31
2017-05-21T08:29:48.892Z,23.04
2017-05-21T08:30:29.403Z,23.51
2017-05-21T08:32:27.060Z,22.88
2017-05-21T08:33:07.530Z,23.33
2017-05-21T08:33:48.031Z,23.39
2017-05-21T08:34:28.526Z,24.08
2017-05-21T08:35:09.025Z,24.85
2017-05-21T08:35:50.114Z,25.17
2017-05-21T08:36:30.582Z,24.81
2017-05-21T08:37:11.053Z,24.93
2017-05-21T08:37:51.541Z,23.85
2017-05-21T08:38:32.043Z,24.34
2017-05-21T08:39:13.513Z,24.96
2017-05-21T08:39:54.817Z,25.61
2017-05-21T08:41:42.307Z,27.55
2017-05-21T08:42:22.818Z,27
2017-05-21T08:43:03.314Z,26.63
2017-05-21T08:43:43.792Z,26.87
2017-05-21T08:44:24.363Z,26.67
2017-05-21T08:45:04.791Z,26.62
2017-05-21T08:45:45.871Z,26.84
2017-05-21T08:46:26.317Z,24.65
2017-05-21T08:47:06.784Z,25.23
2017-05-21T08:47:47.243Z,24.39
2017-05-21T08:48:27.685Z,24.71
2017-05-21T08:49:08.158Z,25.88
2017-05-21T08:49:48.604Z,26.13
2017-05-21T08:50:29.069Z,26.39
2017-05-21T08:51:09.578Z,27.49
2017-05-21T08:51:50.055Z,28.31
2017-05-21T08:52:30.529Z,28.27
2017-05-21T08:53:11.008Z,27.75
2017-05-21T08:55:23.979Z,27.59
2017-05-21T08:56:04.240Z,27.21
2017-05-21T08:56:44.711Z,28.03
2017-05-21T08:57:25.155Z,27.13
2017-05-21T08:58:05.618Z,24.8
2017-05-21T08:58:46.050Z,24.32
2017-05-21T09:00:23.527Z,24.53
2017-05-21T09:01:03.839Z,25.09
2017-05-21T09:01:44.308Z,24.9
2017-05-21T09:02:24.743Z,24.71
2017-05-21T09:03:05.208Z,25.15
2017-05-21T09:03:45.677Z,25.1
2017-05-21T09:04:26.149Z,25.7
2017-05-21T09:05:06.620Z,25.9
2017-05-21T09:06:54.493Z,25.95
2017-05-21T09:07:34.874Z,26.3
2017-05-21T09:08:15.345Z,27.44
2017-05-21T09:08:55.827Z,27.54
2017-05-21T09:09:36.277Z,27.59
2017-05-21T09:10:16.734Z,27.78
2017-05-21T09:10:57.182Z,27.96
2017-05-21T09:11:37.652Z,28.66
2017-05-21T09:12:18.095Z,29.8
2017-05-21T09:14:31.131Z,27.78
2017-05-21T09:15:11.597Z,28.71
2017-05-21T09:15:52.066Z,28.46
2017-05-21T09:16:32.519Z,29.16
2017-05-21T09:18:20.032Z,30.02
2017-05-21T09:19:00.433Z,30.83
2017-05-21T09:19:40.914Z,31.26
2017-05-21T09:20:21.446Z,30.13
2017-05-21T09:21:01.919Z,30.11
2017-05-21T09:22:49.426Z,29.98
2017-05-21T09:23:29.893Z,30.38
2017-05-21T09:25:27.635Z,30.89
2017-05-21T09:26:08.043Z,30.73
2017-05-21T09:26:48.517Z,30.49
2017-05-21T09:27:28.974Z,29.06
2017-05-21T09:28:09.455Z,28.11
2017-05-21T09:30:07.180Z,29.48
2017-05-21T09:30:47.598Z,29.39
2017-05-21T09:31:28.057Z,29.02
2017-05-21T09:32:08.534Z,29.73
2017-05-21T09:32:49.035Z,29.34
2017-05-21T09:33:29.537Z,29.28
2017-05-21T09:34:10.009Z,29.21
2017-05-21T09:34:50.484Z,28.51
2017-05-21T09:35:30.966Z,28.74
2017-05-21T09:36:11.466Z,29.18
2017-05-21T09:36:51.945Z,29.26
2017-05-21T09:37:32.404Z,28.7
2017-05-21T09:38:12.889Z,28.95
2017-05-21T09:38:53.351Z,30.2
2017-05-21T09:40:40.985Z,30.27
2017-05-21T09:41:21.326Z,30.01
2017-05-21T09:42:02.325Z,29.78
2017-05-21T09:42:42.785Z,29.6
2017-05-21T09:43:23.245Z,29.57
2017-05-21T09:44:03.680Z,30.54
2017-05-21T09:44:44.169Z,29.71
2017-05-21T09:46:36.766Z,32.06
2017-05-21T09:47:17.198Z,32.01
2017-05-21T09:47:57.692Z,31.86
2017-05-21T09:48:38.143Z,31.34
2017-05-21T09:50:25.642Z,30.23
2017-05-21T09:51:06.106Z,29.33
2017-05-21T09:51:46.584Z,29.28
2017-05-21T09:52:27.031Z,28.17
2017-05-21T09:53:07.486Z,28.4
2017-05-21T09:53:47.953Z,27.72
2017-05-21T09:56:00.722Z,27.43
2017-05-21T09:56:41.185Z,27.6
2017-05-21T09:57:21.677Z,27.67
2017-05-21T09:58:02.163Z,27.06
2017-05-21T09:58:42.670Z,26.13
2017-05-21T09:59:23.142Z,25.58
2017-05-21T10:00:03.585Z,26.06
2017-05-21T10:00:44.083Z,26.23
2017-05-21T10:01:25.181Z,26.45
2017-05-21T10:02:05.628Z,26.99
2017-05-21T10:04:03.285Z,25.28
2017-05-21T10:04:43.729Z,25.64
2017-05-21T10:06:41.363Z,26.36
2017-05-21T10:07:21.823Z,26.01
2017-05-21T10:08:02.290Z,26.28
2017-05-21T10:08:42.766Z,26.37
2017-05-21T10:09:23.240Z,25.23
2017-05-21T10:11:20.914Z,24.8
2017-05-21T10:12:01.338Z,25
2017-05-21T10:13:59.011Z,25.82
2017-05-21T10:14:39.373Z,27.02
2017-05-21T10:16:52.126Z,28.95
2017-05-21T10:17:32.593Z,27.63